MAPA DE AEROPUERTO

INFORMACIÓN METAR y TAF

METAR FOR GEML
ADDS - METARS form results

(1603 UTC 07 May 2021)
Data provider http://aviationweather.gov/metar/data/
 
METAR text: GEML 071530Z 09005KT 030V130 CAVOK 23/14 Q1017
Conditions at: GEML (MELILLA , ES) observed 1530 UTC 07 May 2021
Temperature: 23.0°C (73°F)
Dewpoint: 14.0°C (57°F) [RH = 57%]
Pressure (altimeter): 30.03 inches Hg (1017.0 mb)
Winds: from the E (90 degrees) at 6 MPH (5 knots; 2.6 m/s)
Visibility: 6 or more miles (10+ km)
Ceiling: ceiling and visibility are OK
Clouds: unknown
Weather: no significant weather observed at this time

Forecast for: GEML (MELILLA , ES)
Text: TAF GEML 071100Z 0712/0812 06005KT CAVOK TX24/0811Z TN15/0805Z
Forecast period: 1200 UTC 07 May 2021 to 1200 UTC 08 May 2021
Forecast type: FROM: standard forecast or significant change
Winds: from the ENE (60 degrees) at 6 MPH (5 knots; 2.6 m/s)
Visibility: 6 or more miles (10+ km)
Ceiling: unknown
Clouds: missing
Weather: no significant weather forecast for this period